createdAt,value
2022-12-01T00:00:45.998Z,8.60
2022-12-01T00:05:48.142Z,8.70
2022-12-01T00:10:50.250Z,8.70
2022-12-01T00:15:52.405Z,8.60
2022-12-01T00:20:56.113Z,8.60
2022-12-01T00:26:05.375Z,8.50
2022-12-01T00:31:09.039Z,8.60
2022-12-01T00:36:11.052Z,8.50
2022-12-01T00:41:13.149Z,8.50
2022-12-01T00:46:15.112Z,8.50
2022-12-01T00:51:17.553Z,8.60
2022-12-01T00:56:21.336Z,8.60
2022-12-01T01:01:23.529Z,8.60
2022-12-01T01:06:25.618Z,8.60
2022-12-01T01:11:27.504Z,8.60
2022-12-01T01:16:30.116Z,8.60
2022-12-01T01:21:32.502Z,8.50
2022-12-01T01:26:35.605Z,8.50
2022-12-01T01:31:41.331Z,8.40
2022-12-01T01:36:43.380Z,8.40
2022-12-01T01:41:45.396Z,8.40
2022-12-01T01:46:47.274Z,8.40
2022-12-01T01:51:57.938Z,8.40
2022-12-01T01:57:01.391Z,8.40
2022-12-01T02:02:09.564Z,8.40
2022-12-01T02:07:13.652Z,8.50
2022-12-01T02:12:24.580Z,8.50
2022-12-01T02:17:44.782Z,8.60
2022-12-01T02:23:08.735Z,8.60
2022-12-01T02:28:25.975Z,8.60
2022-12-01T02:33:32.511Z,8.70
2022-12-01T02:38:52.564Z,8.60
2022-12-01T02:43:54.598Z,8.70
2022-12-01T02:48:59.913Z,8.60
2022-12-01T02:54:04.840Z,8.50
2022-12-01T02:59:12.551Z,8.40
2022-12-01T03:04:29.773Z,8.50
2022-12-01T03:10:00.368Z,8.50
2022-12-01T03:15:03.313Z,8.40
2022-12-01T03:20:24.720Z,8.30
2022-12-01T03:25:30.046Z,8.30
2022-12-01T03:30:35.028Z,8.10
2022-12-01T03:35:44.506Z,8.20
2022-12-01T03:40:50.759Z,8.20
2022-12-01T03:46:11.492Z,8.30
2022-12-01T03:51:26.891Z,8.20
2022-12-01T03:56:35.481Z,8.20
2022-12-01T04:01:54.098Z,8.30
2022-12-01T04:06:59.426Z,8.30
2022-12-01T04:12:20.273Z,8.20
2022-12-01T04:17:23.392Z,8.10
2022-12-01T04:22:25.525Z,8.10
2022-12-01T04:27:30.046Z,8.10
2022-12-01T04:32:32.199Z,8.10
2022-12-01T04:37:34.688Z,8.20
2022-12-01T04:42:36.789Z,8.20
2022-12-01T04:47:38.973Z,8.20
2022-12-01T04:52:41.127Z,8.20
2022-12-01T04:57:43.178Z,8.20
2022-12-01T05:02:46.009Z,8.30
2022-12-01T05:07:48.349Z,8.20
2022-12-01T05:12:50.554Z,8.20
2022-12-01T05:17:52.493Z,8.30
2022-12-01T05:23:07.119Z,8.30
2022-12-01T05:28:12.536Z,8.40
2022-12-01T05:33:22.296Z,8.30
2022-12-01T05:38:24.217Z,8.40
2022-12-01T05:43:29.430Z,8.30
2022-12-01T05:48:31.827Z,8.30
2022-12-01T05:53:33.877Z,8.30
2022-12-01T05:58:36.380Z,8.30
2022-12-01T06:03:38.511Z,8.10
2022-12-01T06:08:41.313Z,8.20
2022-12-01T06:13:43.554Z,8.20
2022-12-01T06:18:45.627Z,8.20
2022-12-01T06:23:47.594Z,8.20
2022-12-01T06:28:49.597Z,8.30
2022-12-01T06:33:51.912Z,8.20
2022-12-01T06:38:53.896Z,8.10
2022-12-01T06:43:56.279Z,8.20
2022-12-01T06:49:04.488Z,8.20
2022-12-01T06:54:06.571Z,8.20
2022-12-01T06:59:10.845Z,8.20
2022-12-01T07:04:13.492Z,8.20
2022-12-01T07:09:15.682Z,8.20
2022-12-01T07:14:25.343Z,8.20
2022-12-01T07:19:27.551Z,8.20
2022-12-01T07:24:30.404Z,8.10
2022-12-01T07:29:33.117Z,8.10
2022-12-01T07:34:37.342Z,8.10
2022-12-01T07:39:39.362Z,8.20
2022-12-01T07:44:47.511Z,8.20
2022-12-01T07:50:15.774Z,8.10
2022-12-01T07:55:20.762Z,8.10
2022-12-01T08:00:23.351Z,8.10
2022-12-01T08:05:25.309Z,8.10
2022-12-01T08:10:33.583Z,8.00
2022-12-01T08:15:42.017Z,8.00
2022-12-01T08:20:51.477Z,8.10
2022-12-01T08:26:06.723Z,8.10
2022-12-01T08:31:28.956Z,8.10
2022-12-01T08:36:38.830Z,8.20
2022-12-01T08:41:41.313Z,8.20
2022-12-01T08:46:43.770Z,8.30
2022-12-01T08:51:52.561Z,8.30
2022-12-01T08:56:54.893Z,8.40
2022-12-01T09:01:59.699Z,8.40
2022-12-01T09:07:04.829Z,8.50
2022-12-01T09:12:09.381Z,8.50
2022-12-01T09:17:15.476Z,8.40
2022-12-01T09:22:18.062Z,8.40
2022-12-01T09:27:20.387Z,8.40
2022-12-01T09:32:23.514Z,8.30
2022-12-01T09:37:27.491Z,8.30
2022-12-01T09:42:44.051Z,8.30
2022-12-01T09:47:52.642Z,8.30
2022-12-01T09:53:20.123Z,8.40
2022-12-01T09:58:29.706Z,8.40
2022-12-01T10:03:41.630Z,8.40
2022-12-01T10:09:07.179Z,8.40
2022-12-01T10:14:20.087Z,8.50
2022-12-01T10:19:55.032Z,8.50
2022-12-01T10:25:21.400Z,8.50
2022-12-01T10:30:24.600Z,8.50
2022-12-01T10:42:28.960Z,8.50
2022-12-01T10:54:19.451Z,8.60
2022-12-01T10:59:32.779Z,8.70
2022-12-01T11:05:09.406Z,8.70
2022-12-01T11:10:21.291Z,8.70
2022-12-01T11:15:37.726Z,8.70
2022-12-01T11:20:41.182Z,8.80
2022-12-01T11:25:54.041Z,8.90
2022-12-01T11:31:13.598Z,8.90
2022-12-01T11:36:37.188Z,9.00
2022-12-01T11:41:40.949Z,9.10
2022-12-01T11:46:50.427Z,9.10
2022-12-01T11:57:34.999Z,9.20
2022-12-01T12:02:54.319Z,9.20
2022-12-01T12:29:10.705Z,9.10
2022-12-01T13:02:07.081Z,9.40
2022-12-01T13:12:58.620Z,9.50
2022-12-01T13:18:19.077Z,9.50
2022-12-01T13:23:22.731Z,9.50
2022-12-01T13:34:50.555Z,9.60
2022-12-01T13:39:55.556Z,9.60
2022-12-01T14:07:43.107Z,9.50
2022-12-01T14:12:49.242Z,9.50
2022-12-01T14:18:07.935Z,9.50
2022-12-01T14:23:39.736Z,9.50
2022-12-01T14:28:57.031Z,9.40
2022-12-01T14:34:19.575Z,9.30
2022-12-01T14:39:26.152Z,9.30
2022-12-01T14:44:30.764Z,9.30
2022-12-01T14:49:43.921Z,9.20
2022-12-01T14:54:49.476Z,9.30
2022-12-01T15:00:11.412Z,9.30
2022-12-01T15:05:16.762Z,9.40
2022-12-01T15:10:27.563Z,9.30
2022-12-01T15:15:29.567Z,9.40
2022-12-01T15:20:41.285Z,9.50
2022-12-01T15:25:47.194Z,9.50
2022-12-01T15:30:54.823Z,9.50
2022-12-01T15:35:57.547Z,9.40
2022-12-01T15:46:32.364Z,9.40
2022-12-01T15:51:34.928Z,9.30
2022-12-01T15:56:39.280Z,9.20
2022-12-01T16:01:43.475Z,9.20
2022-12-01T16:07:04.901Z,9.20
2022-12-01T16:12:09.504Z,9.20
2022-12-01T16:17:11.612Z,9.20
2022-12-01T16:22:21.839Z,9.20
2022-12-01T16:27:31.597Z,9.30
2022-12-01T16:32:40.676Z,9.30
2022-12-01T16:37:42.549Z,9.20
2022-12-01T16:42:44.861Z,9.20
2022-12-01T16:47:48.911Z,9.10
2022-12-01T16:52:50.899Z,9.20
2022-12-01T16:57:52.873Z,9.30
2022-12-01T17:02:54.922Z,9.30
2022-12-01T17:07:57.054Z,9.20
2022-12-01T17:12:59.174Z,9.20
2022-12-01T17:18:01.160Z,9.20
2022-12-01T17:23:03.196Z,9.30
2022-12-01T17:28:05.235Z,9.30
2022-12-01T17:33:07.139Z,9.40
2022-12-01T17:38:09.133Z,9.40
2022-12-01T17:43:11.050Z,9.40
2022-12-01T17:48:12.958Z,9.50
2022-12-01T17:53:14.973Z,9.40
2022-12-01T17:58:21.277Z,9.40
2022-12-01T18:03:23.124Z,9.40
2022-12-01T18:08:26.943Z,9.50
2022-12-01T18:13:29.206Z,9.50
2022-12-01T18:18:31.132Z,9.50
2022-12-01T18:23:33.025Z,9.50
2022-12-01T18:28:35.693Z,9.40
2022-12-01T18:33:38.938Z,9.40
2022-12-01T18:38:41.426Z,9.40
2022-12-01T18:43:43.812Z,9.40
2022-12-01T18:48:47.373Z,9.30
2022-12-01T18:53:57.255Z,9.40
2022-12-01T18:59:08.481Z,9.40
2022-12-01T19:04:10.660Z,9.40
2022-12-01T19:09:14.507Z,9.30
2022-12-01T19:14:18.659Z,9.20
2022-12-01T19:19:21.203Z,9.20
2022-12-01T19:24:24.061Z,9.20
2022-12-01T19:29:26.923Z,9.30
2022-12-01T19:34:29.406Z,9.30
2022-12-01T19:39:31.391Z,9.30
2022-12-01T19:44:34.760Z,9.20
2022-12-01T19:49:37.513Z,9.10
2022-12-01T19:54:39.683Z,9.10
2022-12-01T19:59:41.619Z,9.00
2022-12-01T20:04:43.538Z,9.00
2022-12-01T20:09:49.940Z,9.00
2022-12-01T20:14:52.663Z,9.00
2022-12-01T20:19:54.922Z,8.90
2022-12-01T20:24:57.023Z,8.90
2022-12-01T20:30:20.752Z,8.90
2022-12-01T20:35:22.800Z,9.00
2022-12-01T20:40:24.858Z,8.90
2022-12-01T20:45:27.564Z,8.90
2022-12-01T20:50:29.554Z,8.90
2022-12-01T20:55:31.613Z,8.90
2022-12-01T21:00:33.542Z,8.90
2022-12-01T21:05:42.546Z,8.80
2022-12-01T21:10:45.919Z,8.80
2022-12-01T21:16:03.447Z,8.80
2022-12-01T21:21:27.594Z,8.80
2022-12-01T21:26:29.492Z,8.80
2022-12-01T21:31:32.182Z,8.80
2022-12-01T21:36:35.187Z,8.90
2022-12-01T21:41:38.033Z,9.00
2022-12-01T21:46:42.150Z,9.10
2022-12-01T21:51:45.518Z,9.00
2022-12-01T21:56:49.683Z,9.10
2022-12-01T22:02:49.052Z,9.10
2022-12-01T22:13:55.294Z,9.10
2022-12-01T22:19:22.730Z,9.00
2022-12-01T22:24:26.417Z,9.00
2022-12-01T22:29:33.989Z,9.00
2022-12-01T22:34:42.667Z,9.00
2022-12-01T22:45:34.961Z,8.90
2022-12-01T22:56:36.131Z,9.00
2022-12-01T23:02:03.852Z,9.00
2022-12-01T23:07:35.309Z,9.00
2022-12-01T23:12:38.684Z,9.00
2022-12-01T23:17:44.932Z,8.90
2022-12-01T23:28:26.177Z,8.70
2022-12-01T23:33:33.685Z,8.70
2022-12-01T23:38:39.225Z,8.60
2022-12-01T23:43:45.313Z,8.50
2022-12-01T23:48:49.472Z,8.40
2022-12-01T23:53:53.581Z,8.50
2022-12-01T23:58:59.088Z,8.60
